Terminal Aerodrome Forecast
Issued by NWS

Home | Current Version | Previous Version | Text Only | Print | Product List | Glossary On
Versions: 1 2 3 4 5 6 7 8 9 10 11 12 13 14
000
FTUS44 KMAF 261700 RRA
TAFFST
TAF
KFST 261741Z 2618/2718 28008KT P6SM SKC
     FM261900 01013G20KT P6SM SKC
     FM262300 07007KT P6SM SKC
     FM270600 12005KT P6SM SKC
     FM271500 17010KT P6SM SKC=

USA.gov is the U.S. government's official web portal to all federal, state and local government web resources and services.